Time;durP1;ratioP1;P1;durP2;ratioP2;P2;SDS_P1;SDS_P2;PMS_P1;PMS_P2;Temp;Humidity;BMP_temperature;BMP_pressure;BME280_temperature;BME280_humidity;BME280_pressure;Samples;Min_cycle;Max_cycle;Signal;HPM_P1;HPM_P2
2022/06/07 00:00:55;;;;;;;10.88;6.35;;;;;;;14.09;73.96;100943.45;1835343;76;20950;-88
2022/06/07 00:03:21;;;;;;;14.45;6.78;;;;;;;14.09;73.95;100940.81;1835688;77;20895;-89
2022/06/07 00:05:48;;;;;;;9.05;5.67;;;;;;;14.08;73.80;100947.02;1836017;78;21104;-89
2022/06/07 00:08:18;;;;;;;11.33;6.58;;;;;;;14.01;74.12;100944.44;1835746;77;20895;-88
2022/06/07 00:10:47;;;;;;;9.55;6.42;;;;;;;14.01;74.12;100944.44;1836104;77;20843;-89
2022/06/07 00:13:16;;;;;;;7.10;5.53;;;;;;;13.97;74.54;100944.77;1835376;77;21503;-86
2022/06/07 00:15:44;;;;;;;11.60;7.80;;;;;;;13.94;74.87;100948.91;1836148;76;20894;-88
2022/06/07 00:18:11;;;;;;;13.25;7.45;;;;;;;13.89;74.94;100937.36;1835663;77;21254;-89
2022/06/07 00:20:40;;;;;;;12.33;8.13;;;;;;;13.85;74.91;100940.70;1835584;77;20890;-88
2022/06/07 00:23:10;;;;;;;11.53;7.75;;;;;;;13.82;75.14;100942.70;1835577;77;21064;-89
2022/06/07 00:25:38;;;;;;;8.45;6.58;;;;;;;13.82;75.15;100941.38;1835815;76;20879;-90
2022/06/07 00:28:05;;;;;;;10.93;7.15;;;;;;;13.83;75.14;100938.64;1835306;77;20922;-89
2022/06/07 00:30:32;;;;;;;15.43;8.80;;;;;;;13.85;75.05;100941.16;1852314;77;21152;-89
2022/06/07 00:32:58;;;;;;;12.50;8.23;;;;;;;13.81;74.91;100940.54;1860578;77;20875;-89
2022/06/07 00:35:25;;;;;;;17.32;9.15;;;;;;;13.81;74.91;100940.54;1860928;77;20879;-88
2022/06/07 00:37:52;;;;;;;15.98;10.08;;;;;;;13.77;74.75;100940.38;1860423;77;20918;-88
2022/06/07 00:40:18;;;;;;;12.80;9.23;;;;;;;13.73;74.89;100940.21;1860963;77;20864;-89
2022/06/07 00:42:45;;;;;;;12.90;10.28;;;;;;;13.70;75.01;100948.34;1860612;77;21108;-89
2022/06/07 00:45:16;;;;;;;17.10;12.13;;;;;;;13.65;75.16;100943.38;1860535;77;20896;-89
2022/06/07 00:47:42;;;;;;;15.50;10.23;;;;;;;13.63;75.21;100944.44;1860554;76;20907;-88
2022/06/07 00:50:33;;;;;;;13.90;10.00;;;;;;;13.60;75.34;100943.30;1860585;77;20875;-89
2022/06/07 00:53:03;;;;;;;15.20;11.00;;;;;;;13.55;75.53;100948.89;1860607;77;20868;-88
2022/06/07 00:55:30;;;;;;;16.37;12.07;;;;;;;13.53;75.53;100942.04;1860891;77;20993;-89
2022/06/07 00:57:59;;;;;;;20.12;12.95;;;;;;;13.51;75.64;100936.03;1858111;77;20895;-89
2022/06/07 01:00:28;;;;;;;15.72;11.65;;;;;;;13.50;75.73;100934.36;1859564;76;20852;-89
2022/06/07 01:02:56;;;;;;;14.10;12.00;;;;;;;13.49;75.62;100934.80;1862701;77;20981;-88
2022/06/07 01:05:23;;;;;;;13.72;10.68;;;;;;;13.45;75.39;100938.59;1862432;77;20911;-87
2022/06/07 01:10:45;;;;;;;16.73;11.88;;;;;;;13.38;75.50;100936.00;1860648;76;20871;-89
2022/06/07 01:13:15;;;;;;;;;;;;;;;13.34;75.77;100933.19;1861333;77;20971;-88
2022/06/07 01:15:45;;;;;;;16.23;11.03;;;;;;;13.29;76.07;100936.13;1860771;77;20100;-89
2022/06/07 01:18:13;;;;;;;15.45;11.65;;;;;;;13.26;76.27;100941.59;1832032;77;21482;-87
2022/06/07 01:20:41;;;;;;;19.15;11.50;;;;;;;13.22;76.50;100940.93;1861315;77;21142;-90
2022/06/07 01:23:08;;;;;;;16.27;12.58;;;;;;;13.19;76.77;100946.41;1860601;76;20910;-89
2022/06/07 01:25:36;;;;;;;20.10;12.55;;;;;;;13.18;76.90;100941.23;1860671;77;20876;-91
2022/06/07 01:28:04;;;;;;;17.48;11.40;;;;;;;13.16;77.00;100945.76;1860630;76;20922;-88
2022/06/07 01:30:31;;;;;;;19.70;12.90;;;;;;;13.16;77.04;100949.70;1859847;76;20978;-88
2022/06/07 01:32:59;;;;;;;15.20;11.95;;;;;;;13.13;76.99;100949.44;1860684;76;21125;-89
2022/06/07 01:35:26;;;;;;;20.17;12.55;;;;;;;13.12;77.05;100953.03;1860729;77;20923;-88
2022/06/07 01:37:52;;;;;;;22.73;13.65;;;;;;;13.10;77.10;100950.97;1860719;77;20923;-89
2022/06/07 01:43:04;;;;;;;;;;;;;;;13.08;77.21;100952.86;1863868;77;21392;-87
2022/06/07 01:45:31;;;;;;;17.48;12.23;;;;;;;13.07;77.32;100951.15;1861195;76;21097;-89
2022/06/07 01:47:58;;;;;;;17.85;11.48;;;;;;;13.05;77.26;100953.06;1860667;76;21314;-89
2022/06/07 01:50:24;;;;;;;18.60;12.25;;;;;;;13.04;77.20;100952.67;1861268;77;21397;-87
2022/06/07 01:52:51;;;;;;;18.12;12.30;;;;;;;13.03;77.12;100953.16;1860616;76;21041;-89
2022/06/07 01:55:19;;;;;;;17.40;12.20;;;;;;;13.03;77.02;100954.47;1858616;77;20820;-88
2022/06/07 01:57:48;;;;;;;17.75;11.53;;;;;;;13.02;76.80;100950.61;1858069;77;21947;-90
2022/06/07 02:00:16;;;;;;;17.60;11.48;;;;;;;13.00;76.81;100955.13;1860975;77;20867;-89
2022/06/07 02:02:47;;;;;;;19.25;10.95;;;;;;;12.98;76.68;100954.39;1860885;76;20820;-89
2022/06/07 02:05:15;;;;;;;13.60;11.50;;;;;;;12.95;76.58;100956.75;1860816;77;20946;-90
2022/06/07 02:07:44;;;;;;;15.00;10.70;;;;;;;12.93;76.55;100953.84;1860491;76;20909;-89
2022/06/07 02:10:12;;;;;;;15.68;10.53;;;;;;;12.91;76.62;100964.95;1860897;76;21115;-89
2022/06/07 02:12:41;;;;;;;13.30;10.58;;;;;;;12.89;76.75;100961.56;1860618;77;21065;-90
2022/06/07 02:15:09;;;;;;;14.93;11.18;;;;;;;12.88;76.93;100964.67;1860396;76;20828;-88
2022/06/07 02:17:36;;;;;;;14.00;10.82;;;;;;;12.88;77.14;100963.36;1860408;77;20950;-90
2022/06/07 02:20:08;;;;;;;16.93;10.45;;;;;;;12.87;77.29;100962.97;1859141;77;21354;-90
2022/06/07 02:22:36;;;;;;;14.43;9.85;;;;;;;12.88;77.45;100963.36;1860627;76;21254;-89
2022/06/07 02:25:03;;;;;;;11.97;9.45;;;;;;;12.88;77.64;100968.63;1860842;76;20883;-89
2022/06/07 02:27:30;;;;;;;16.23;10.10;;;;;;;12.89;77.82;100973.41;1861386;77;20852;-90
2022/06/07 02:29:57;;;;;;;13.78;10.72;;;;;;;12.89;77.96;100971.61;1860282;77;20918;-91
2022/06/07 02:32:27;;;;;;;13.28;10.72;;;;;;;12.91;78.04;100971.05;1858608;77;20963;-90
2022/06/07 02:34:57;;;;;;;19.02;10.40;;;;;;;12.92;78.13;100966.65;1858704;77;21877;-88
2022/06/07 02:37:25;;;;;;;15.15;10.65;;;;;;;12.94;78.07;100970.00;1858673;77;21367;-90
2022/06/07 02:39:52;;;;;;;13.93;11.05;;;;;;;12.96;77.96;100970.30;1860473;76;20916;-91
2022/06/07 02:42:20;;;;;;;14.20;10.55;;;;;;;12.96;77.96;100976.88;1858894;77;20904;-91
2022/06/07 02:44:48;;;;;;;15.15;9.75;;;;;;;12.98;77.95;100971.50;1858694;77;20869;-91
2022/06/07 02:47:14;;;;;;;14.18;9.08;;;;;;;13.00;78.07;100980.98;1833405;77;21390;-87
2022/06/07 02:49:43;;;;;;;16.52;11.20;;;;;;;13.00;78.13;100977.52;1859621;77;20901;-88
2022/06/07 02:52:10;;;;;;;12.73;9.40;;;;;;;13.03;78.53;100974.70;1859447;77;20889;-88
2022/06/07 02:54:40;;;;;;;10.90;8.68;;;;;;;13.03;78.53;100974.70;1859574;77;20897;-88
2022/06/07 02:57:07;;;;;;;12.68;8.93;;;;;;;13.06;78.66;100977.95;1859307;76;21287;-89
2022/06/07 02:59:35;;;;;;;11.55;9.03;;;;;;;13.11;78.66;100980.77;1859054;77;21072;-91
2022/06/07 03:02:03;;;;;;;16.37;9.03;;;;;;;13.15;78.54;100988.38;1858975;77;20920;-90
2022/06/07 03:04:30;;;;;;;12.65;8.03;;;;;;;13.20;78.71;100992.86;1833596;77;20834;-86
2022/06/07 03:06:57;;;;;;;15.63;8.63;;;;;;;13.25;78.64;100996.50;1860658;77;21002;-90
2022/06/07 03:09:25;;;;;;;12.13;7.45;;;;;;;13.37;78.91;100988.33;1860998;77;21174;-90
2022/06/07 03:11:56;;;;;;;14.15;8.08;;;;;;;13.37;78.91;100988.33;1860997;76;20921;-91
2022/06/07 03:14:22;;;;;;;9.33;5.92;;;;;;;13.41;78.63;100984.07;1860931;77;20996;-90
2022/06/07 03:16:49;;;;;;;7.80;5.65;;;;;;;13.48;78.47;100985.83;1860869;77;20909;-88
2022/06/07 03:19:16;;;;;;;8.65;6.03;;;;;;;13.55;77.99;100988.41;1861224;76;20980;-89
2022/06/07 03:21:42;;;;;;;9.83;6.25;;;;;;;13.62;77.58;100987.53;1860811;77;20994;-90
2022/06/07 03:24:09;;;;;;;8.13;5.30;;;;;;;13.79;77.52;100981.14;1861102;77;21197;-89
2022/06/07 03:26:36;;;;;;;15.03;5.55;;;;;;;13.79;77.52;100981.14;1860981;76;20900;-88
2022/06/07 03:29:05;;;;;;;9.58;6.15;;;;;;;13.87;77.19;100982.31;1860486;77;20883;-88
2022/06/07 03:31:32;;;;;;;16.55;5.80;;;;;;;13.97;77.12;100978.56;1845393;75;21055;-88
2022/06/07 03:34:00;;;;;;;9.35;5.42;;;;;;;14.07;77.25;100985.35;1838060;77;20887;-88
2022/06/07 03:36:29;;;;;;;6.53;4.53;;;;;;;14.24;77.46;100983.72;1836807;77;21182;-88
2022/06/07 03:39:03;;;;;;;5.75;4.47;;;;;;;14.35;77.11;100986.92;1836213;78;21341;-87
2022/06/07 03:41:33;;;;;;;9.55;5.00;;;;;;;14.35;77.11;100986.92;1835782;77;20946;-89
2022/06/07 03:44:03;;;;;;;7.28;4.55;;;;;;;14.44;77.38;100984.12;1834892;77;20942;-88
2022/06/07 03:46:34;;;;;;;10.25;5.53;;;;;;;14.56;77.60;100983.75;1835617;77;20965;-89
2022/06/07 03:49:02;;;;;;;7.10;4.97;;;;;;;14.66;77.80;100984.80;1835938;77;21146;-89
2022/06/07 03:51:30;;;;;;;8.50;4.50;;;;;;;14.76;77.98;100985.81;1835331;76;20836;-89
2022/06/07 03:53:56;;;;;;;7.75;3.87;;;;;;;14.99;78.16;100985.48;1835210;78;21464;-89
2022/06/07 03:56:26;;;;;;;9.03;4.67;;;;;;;14.99;78.16;100985.48;1835344;77;20918;-89
2022/06/07 03:58:54;;;;;;;7.28;4.65;;;;;;;15.12;78.34;100986.28;1835330;78;20903;-89
2022/06/07 04:01:22;;;;;;;7.47;3.80;;;;;;;15.40;78.48;100989.52;1807219;78;21737;-88
2022/06/07 04:03:52;;;;;;;8.18;4.15;;;;;;;15.40;78.48;100989.52;1835244;76;20890;-88
2022/06/07 04:06:33;;;;;;;14.63;4.53;;;;;;;15.53;78.35;100991.61;1835199;77;20870;-86
2022/06/07 04:09:03;;;;;;;11.40;3.77;;;;;;;15.73;78.24;100987.48;1834922;77;21519;-88
2022/06/07 04:11:30;;;;;;;8.15;3.52;;;;;;;16.17;78.10;100985.05;1835448;77;20927;-88
2022/06/07 04:13:59;;;;;;;8.95;3.72;;;;;;;16.76;77.26;100987.89;1835452;76;21334;-88
2022/06/07 04:16:29;;;;;;;18.98;5.17;;;;;;;17.42;75.56;100988.34;1835533;77;21356;-88
2022/06/07 04:18:58;;;;;;;8.68;3.17;;;;;;;18.12;73.66;100982.87;1837428;77;20875;-87
2022/06/07 04:21:25;;;;;;;7.65;3.25;;;;;;;18.81;71.39;100995.00;1836856;77;20891;-89
2022/06/07 04:23:54;;;;;;;6.72;3.42;;;;;;;19.52;69.14;100997.93;1835798;77;20914;-88
2022/06/07 04:26:24;;;;;;;4.08;2.25;;;;;;;20.22;66.92;100997.67;1835463;77;21151;-88
2022/06/07 04:28:52;;;;;;;6.30;2.77;;;;;;;20.89;63.35;100998.34;1835465;77;20994;-90
2022/06/07 04:31:22;;;;;;;7.70;3.02;;;;;;;21.52;61.54;101005.48;1841859;76;20897;-89
2022/06/07 04:33:49;;;;;;;6.80;2.22;;;;;;;22.10;57.20;101010.26;1849817;77;20861;-89
2022/06/07 04:36:20;;;;;;;8.70;2.65;;;;;;;22.59;54.88;101007.03;1849925;77;20854;-89
2022/06/07 04:38:49;;;;;;;4.62;2.67;;;;;;;23.06;52.80;101009.20;1849928;77;21127;-88
2022/06/07 04:41:17;;;;;;;7.30;2.85;;;;;;;23.52;49.83;101006.05;1849794;77;21425;-90
2022/06/07 04:43:50;;;;;;;4.92;3.17;;;;;;;23.97;48.33;100999.37;1849922;77;21383;-89
2022/06/07 04:46:17;;;;;;;4.83;2.30;;;;;;;24.37;47.85;100993.05;1849806;77;20886;-89
2022/06/07 04:48:46;;;;;;;4.67;2.55;;;;;;;24.70;46.38;100992.08;1850220;77;20877;-89
2022/06/07 04:51:24;;;;;;;4.85;3.00;;;;;;;24.97;45.39;100990.27;1849590;77;21211;-88
2022/06/07 04:53:54;;;;;;;3.50;2.52;;;;;;;25.27;44.47;101001.16;1849305;77;21049;-88
2022/06/07 04:56:28;;;;;;;6.00;3.47;;;;;;;25.57;43.44;100995.38;1849766;77;20980;-89
2022/06/07 04:58:58;;;;;;;5.15;2.47;;;;;;;25.83;42.96;100999.02;1849942;77;20870;-88
2022/06/07 05:01:32;;;;;;;5.12;2.70;;;;;;;26.11;42.26;101006.98;1849563;77;20964;-88
2022/06/07 05:04:01;;;;;;;5.25;2.90;;;;;;;26.37;41.52;101013.22;1823304;77;21248;-89
2022/06/07 05:06:31;;;;;;;7.05;3.90;;;;;;;26.71;40.77;101007.29;1849955;77;20869;-89
2022/06/07 05:09:04;;;;;;;4.58;3.22;;;;;;;27.00;40.46;101007.72;1848787;77;20959;-87
2022/06/07 05:11:33;;;;;;;7.97;3.98;;;;;;;27.17;38.66;101004.77;1850214;76;20881;-88
2022/06/07 05:14:03;;;;;;;5.75;3.67;;;;;;;27.35;38.22;101011.94;1849872;77;21367;-89
2022/06/07 05:16:32;;;;;;;5.58;3.98;;;;;;;27.57;37.62;101003.33;1824257;77;21224;-90
2022/06/07 05:18:59;;;;;;;7.87;3.80;;;;;;;27.70;37.25;101007.97;1849981;77;20838;-88
2022/06/07 05:21:27;;;;;;;5.70;3.58;;;;;;;27.87;37.24;101012.08;1850094;77;20913;-89
2022/06/07 05:23:55;;;;;;;7.30;4.20;;;;;;;28.06;36.85;101018.65;1823742;77;20944;-89
2022/06/07 05:26:37;;;;;;;9.15;4.95;;;;;;;28.25;37.27;101014.91;1849597;77;21489;-88
2022/06/07 05:29:05;;;;;;;10.85;4.60;;;;;;;28.44;36.89;101012.02;1849880;77;21239;-87
2022/06/07 05:31:34;;;;;;;15.03;3.72;;;;;;;28.72;36.62;101007.39;1843327;75;20919;-89
2022/06/07 05:36:45;;;;;;;5.78;3.62;;;;;;;29.09;35.75;101009.27;1834375;76;22692;-89
2022/06/07 05:39:22;;;;;;;6.70;3.17;;;;;;;29.25;35.30;101002.64;1781480;80;21164;-88
2022/06/07 05:41:49;;;;;;;6.67;3.77;;;;;;;29.39;35.04;101006.71;1777875;80;21144;-87
2022/06/07 05:44:19;;;;;;;7.10;3.70;;;;;;;29.57;34.55;100999.33;1777422;80;20947;-90
2022/06/07 05:46:48;;;;;;;9.08;3.12;;;;;;;29.72;34.72;100998.63;1772890;79;21022;-91
2022/06/07 05:49:20;;;;;;;6.23;3.57;;;;;;;29.94;34.59;101008.16;1718116;81;20947;-89
2022/06/07 05:51:48;;;;;;;4.05;3.25;;;;;;;30.29;33.71;101004.38;1775959;80;21357;-90
2022/06/07 05:54:15;;;;;;;6.55;4.55;;;;;;;30.64;33.14;101004.02;1754272;80;21229;-90
2022/06/07 05:56:42;;;;;;;12.65;4.37;;;;;;;30.85;32.06;101006.45;1819015;77;20881;-92
2022/06/07 05:59:10;;;;;;;6.95;5.05;;;;;;;31.00;32.07;101011.59;1806093;77;20990;-91
2022/06/07 06:01:38;;;;;;;9.88;5.33;;;;;;;31.23;31.92;101011.53;1801721;77;20956;-89
2022/06/07 06:04:07;;;;;;;10.25;5.05;;;;;;;31.38;31.85;101014.23;1787372;77;20892;-89
2022/06/07 06:06:36;;;;;;;7.60;6.35;;;;;;;31.56;31.24;101009.95;1791222;78;20985;-89
2022/06/07 06:11:52;;;;;;;14.60;5.37;;;;;;;31.72;30.71;101011.27;1793956;77;20935;-89
2022/06/07 06:14:23;;;;;;;7.55;4.22;;;;;;;31.84;30.15;101012.72;1804879;77;20939;-87
2022/06/07 06:16:52;;;;;;;7.30;4.53;;;;;;;31.87;29.78;101002.26;1792096;77;21053;-89
2022/06/07 06:19:25;;;;;;;14.47;10.83;;;;;;;31.95;29.74;101004.69;1787247;79;21929;-86
2022/06/07 06:21:53;;;;;;;9.95;6.80;;;;;;;32.12;29.39;101004.12;1811587;79;21044;-88
2022/06/07 06:24:23;;;;;;;12.10;4.12;;;;;;;32.26;29.14;101005.64;1805124;77;20927;-88
2022/06/07 06:26:49;;;;;;;8.75;3.25;;;;;;;32.32;29.19;101006.08;1805265;77;20982;-88
2022/06/07 06:29:18;;;;;;;4.15;2.83;;;;;;;32.38;29.20;101002.45;1798859;77;21370;-88
2022/06/07 06:31:47;;;;;;;6.08;2.65;;;;;;;32.48;29.20;101007.88;1811456;77;21268;-90
2022/06/07 06:34:14;;;;;;;3.25;1.90;;;;;;;32.60;29.55;100997.41;1811925;79;20857;-89
2022/06/07 06:36:40;;;;;;;9.53;2.10;;;;;;;32.84;28.89;100992.08;1811681;79;20905;-89
2022/06/07 06:39:08;;;;;;;4.50;1.50;;;;;;;33.10;27.74;100997.67;1811705;79;20991;-88
2022/06/07 06:41:37;;;;;;;4.37;2.00;;;;;;;33.42;27.17;100995.50;1805844;78;20962;-88
2022/06/07 06:44:04;;;;;;;4.40;1.50;;;;;;;33.73;26.40;100995.41;1803115;77;21169;-89
2022/06/07 06:46:39;;;;;;;7.35;1.47;;;;;;;33.97;25.66;100996.22;1782420;77;20935;-90
2022/06/07 06:49:07;;;;;;;16.40;14.50;;;;;;;34.18;26.13;101000.26;1803680;79;20947;-88
2022/06/07 06:51:35;;;;;;;4.12;2.42;;;;;;;34.32;25.84;100998.09;1802297;77;21303;-88
2022/06/07 06:54:04;;;;;;;5.62;2.10;;;;;;;34.36;25.51;101000.63;1799446;77;21307;-89
2022/06/07 06:56:32;;;;;;;6.85;1.92;;;;;;;34.44;25.86;100997.50;1808579;77;21784;-89
2022/06/07 06:59:01;;;;;;;3.12;1.70;;;;;;;34.64;24.99;100995.75;1798599;77;20909;-88
2022/06/07 07:01:33;;;;;;;3.30;2.17;;;;;;;34.83;25.14;100996.39;1794765;77;20990;-88
2022/06/07 07:04:06;;;;;;;2.08;1.57;;;;;;;34.90;25.00;100991.61;1809265;77;21362;-88
2022/06/07 07:06:33;;;;;;;5.62;2.30;;;;;;;35.02;25.29;100987.47;1767750;79;20903;-87
2022/06/07 07:09:01;;;;;;;4.55;1.57;;;;;;;35.20;24.44;100990.53;1805076;78;21607;-89
2022/06/07 07:11:39;;;;;;;5.92;2.00;;;;;;;35.09;24.92;100989.50;1806210;77;21015;-89
2022/06/07 07:14:08;;;;;;;7.58;6.30;;;;;;;35.05;24.80;100976.06;1788769;77;21511;-90
2022/06/07 07:16:39;;;;;;;10.78;2.25;;;;;;;34.91;24.46;100976.92;1801993;77;20933;-91
2022/06/07 07:19:07;;;;;;;5.35;1.27;;;;;;;34.96;24.63;100977.00;1776151;78;20884;-90
2022/06/07 07:21:40;;;;;;;4.40;1.60;;;;;;;35.04;23.72;100974.39;1791618;78;21331;-89
2022/06/07 07:24:12;;;;;;;5.05;1.30;;;;;;;35.19;22.85;100987.50;1798886;77;21347;-91
2022/06/07 07:26:42;;;;;;;3.30;1.15;;;;;;;35.35;22.96;100985.84;1804486;77;20924;-90
2022/06/07 07:29:08;;;;;;;5.05;1.22;;;;;;;35.55;22.45;100989.43;1752328;77;20944;-90
2022/06/07 07:31:36;;;;;;;7.22;1.30;;;;;;;35.55;22.65;100990.80;1809372;77;20984;-91
2022/06/07 07:34:07;;;;;;;3.33;1.07;;;;;;;35.49;22.82;100989.36;1798288;77;21395;-91
2022/06/07 07:36:38;;;;;;;2.60;1.02;;;;;;;35.42;23.06;100991.44;1798805;77;20891;-90
2022/06/07 07:39:05;;;;;;;1.27;0.70;;;;;;;35.44;22.86;100987.92;1800340;77;21394;-89
2022/06/07 07:41:35;;;;;;;4.10;0.68;;;;;;;35.48;22.56;100984.14;1755259;77;21148;-91
2022/06/07 07:44:05;;;;;;;4.83;1.30;;;;;;;35.50;22.53;100984.18;1802199;77;20910;-90
2022/06/07 07:46:35;;;;;;;1.65;0.50;;;;;;;35.63;22.44;100982.23;1758412;77;21225;-90
2022/06/07 07:49:03;;;;;;;1.50;0.80;;;;;;;35.54;22.01;100979.61;1784760;78;20894;-91
2022/06/07 07:51:38;;;;;;;0.90;0.60;;;;;;;35.19;21.50;100981.50;1809583;77;20896;-91
2022/06/07 07:54:10;;;;;;;2.90;0.72;;;;;;;34.85;22.68;100984.71;1810654;79;20904;-90
2022/06/07 07:56:38;;;;;;;2.47;0.70;;;;;;;34.33;22.83;100982.03;1796866;77;20985;-89
2022/06/07 07:59:07;;;;;;;2.45;0.80;;;;;;;34.00;22.91;100974.81;1802292;79;21133;-91
2022/06/07 08:01:36;;;;;;;2.72;0.82;;;;;;;33.78;23.35;100975.14;1799513;77;20969;-90
2022/06/07 08:04:03;;;;;;;1.50;1.15;;;;;;;33.95;23.99;100977.43;1793836;77;20919;-89
2022/06/07 08:06:36;;;;;;;5.28;1.30;;;;;;;33.87;23.64;100968.80;1789616;77;20938;-90
2022/06/07 08:09:08;;;;;;;3.98;2.15;;;;;;;33.71;23.29;100967.64;1806808;77;20880;-87
2022/06/07 08:11:37;;;;;;;1.30;0.75;;;;;;;33.58;23.59;100970.02;1811000;78;21248;-90
2022/06/07 08:14:07;;;;;;;3.70;0.60;;;;;;;33.18;23.68;100968.80;1807259;77;20822;-88
2022/06/07 08:16:35;;;;;;;1.42;0.60;;;;;;;32.95;23.88;100966.84;1792300;77;20911;-88
2022/06/07 08:19:02;;;;;;;2.67;0.80;;;;;;;32.82;24.16;100965.67;1809252;79;20869;-89
2022/06/07 08:21:30;;;;;;;1.82;0.70;;;;;;;32.93;24.73;100967.59;1792632;77;20947;-91
2022/06/07 08:23:57;;;;;;;1.62;0.93;;;;;;;33.21;24.73;100960.70;1809039;78;21856;-92
2022/06/07 08:26:30;;;;;;;2.22;0.57;;;;;;;33.41;24.83;100958.47;1793469;78;20871;-89
2022/06/07 08:28:57;;;;;;;1.60;0.87;;;;;;;34.06;24.30;100965.70;1798030;77;20934;-92
2022/06/07 08:31:27;;;;;;;2.67;0.75;;;;;;;34.06;24.30;100965.70;1805260;77;21326;-91
2022/06/07 08:39:25;;;;;;;4.42;0.85;;;;;;;34.78;22.79;100962.23;1795874;77;20818;-88
2022/06/07 08:42:00;;;;;;;2.20;0.65;;;;;;;34.91;23.47;100957.84;1803997;78;20861;-89
2022/06/07 08:44:49;;;;;;;1.25;0.70;;;;;;;34.77;22.33;100957.30;1799281;77;20912;-91
2022/06/07 08:47:23;;;;;;;1.37;0.80;;;;;;;34.79;22.37;100957.06;1802957;77;20880;-91
2022/06/07 08:49:52;;;;;;;2.85;0.53;;;;;;;34.94;22.38;100955.16;1805613;77;21401;-92
2022/06/07 08:52:35;;;;;;;1.80;0.62;;;;;;;35.20;22.78;100951.81;1798150;77;20970;-91
2022/06/07 08:55:22;;;;;;;2.08;0.53;;;;;;;35.51;22.81;100956.38;1778327;80;20899;-91
2022/06/07 08:57:58;;;;;;;9.33;6.78;;;;;;;35.85;22.15;100954.43;1776046;79;21008;-90
2022/06/07 09:00:28;;;;;;;1.17;1.07;;;;;;;36.11;21.31;100949.31;1760739;79;20889;-91
2022/06/07 09:03:16;;;;;;;1.40;1.30;;;;;;;36.20;21.50;100943.71;1793868;77;21123;-91
2022/06/07 09:05:43;;;;;;;2.95;1.60;;;;;;;36.37;21.64;100937.33;1822134;78;20871;-90
2022/06/07 09:08:13;;;;;;;1.77;1.05;;;;;;;36.54;21.58;100939.98;1813158;78;20845;-92
2022/06/07 09:13:27;;;;;;;1.02;0.90;;;;;;;36.74;20.61;100936.65;1793810;77;20876;-90
2022/06/07 09:15:55;;;;;;;1.55;0.60;;;;;;;36.81;19.97;100937.25;1790465;77;21229;-92
2022/06/07 09:18:28;;;;;;;4.15;0.60;;;;;;;36.73;20.03;100927.63;1811014;77;20943;-90
2022/06/07 09:21:10;;;;;;;8.73;4.72;;;;;;;36.71;20.32;100934.72;1790036;77;20902;-91
2022/06/07 09:23:49;;;;;;;2.10;1.80;;;;;;;36.70;21.06;100928.13;1803212;77;21033;-91
2022/06/07 09:26:32;;;;;;;12.35;8.60;;;;;;;36.72;20.53;100928.70;1790571;77;21033;-91
2022/06/07 09:29:21;;;;;;;3.98;2.30;;;;;;;36.75;20.47;100924.62;1797762;78;21139;-92
2022/06/07 09:31:49;;;;;;;9.00;7.85;;;;;;;36.80;20.93;100928.75;1804055;77;21037;-90
2022/06/07 09:34:26;;;;;;;2.50;1.95;;;;;;;36.82;20.76;100923.34;1797811;77;20903;-91
2022/06/07 09:37:02;;;;;;;4.65;0.75;;;;;;;36.66;20.88;100927.84;1794593;77;21388;-92
2022/06/07 09:39:37;;;;;;;4.20;2.08;;;;;;;36.59;20.82;100921.70;1808516;77;20951;-90
2022/06/07 09:42:15;;;;;;;8.45;5.75;;;;;;;36.43;20.53;100926.75;1787744;77;21582;-90
2022/06/07 09:45:11;;;;;;;7.05;2.87;;;;;;;36.19;20.80;100924.84;1798289;77;21370;-90
2022/06/07 09:47:38;;;;;;;1.30;0.72;;;;;;;35.74;20.98;100923.16;1801197;77;20924;-91
2022/06/07 09:50:20;;;;;;;2.83;1.25;;;;;;;35.45;21.68;100922.73;1805156;77;20872;-90
2022/06/07 09:52:52;;;;;;;5.40;1.62;;;;;;;35.46;21.58;100917.58;1798041;79;20872;-90
2022/06/07 09:55:36;;;;;;;3.25;0.68;;;;;;;35.38;21.67;100922.63;1797463;77;21037;-89
2022/06/07 09:58:30;;;;;;;1.77;1.67;;;;;;;35.19;21.64;100919.33;1784558;77;20998;-92
2022/06/07 10:01:19;;;;;;;1.20;0.90;;;;;;;35.01;21.81;100918.47;1808985;78;21393;-91
2022/06/07 10:03:55;;;;;;;5.33;3.98;;;;;;;35.19;22.37;100913.33;1801136;77;20825;-88
2022/06/07 10:06:36;;;;;;;1.75;1.15;;;;;;;35.38;21.48;100915.27;1811683;77;21010;-90
2022/06/07 10:09:30;;;;;;;1.42;0.90;;;;;;;35.37;21.09;100909.52;1812964;77;21169;-88
2022/06/07 10:12:18;;;;;;;;;;;;;;;35.44;21.76;100912.06;1809997;77;20903;-87
2022/06/07 10:14:51;;;;;;;2.27;0.80;;;;;;;35.29;22.81;100909.95;1812204;77;20111;-91
2022/06/07 10:17:55;;;;;;;1.80;0.95;;;;;;;34.83;22.56;100909.18;1812965;79;20856;-88
2022/06/07 10:20:54;;;;;;;1.92;1.70;;;;;;;34.38;22.82;100907.27;1813457;77;20939;-88
2022/06/07 10:23:50;;;;;;;3.52;1.82;;;;;;;34.05;22.36;100910.12;1813289;79;21254;-87
2022/06/07 10:26:40;;;;;;;3.50;1.60;;;;;;;33.82;22.83;100906.39;1802259;79;20845;-89
2022/06/07 10:29:48;;;;;;;7.12;1.40;;;;;;;33.73;23.52;100903.75;1807498;78;20888;-88
2022/06/07 10:33:04;;;;;;;3.50;0.80;;;;;;;33.60;23.17;100907.55;1791649;77;20852;-89
2022/06/07 10:35:45;;;;;;;1.12;1.02;;;;;;;33.53;23.28;100904.61;1813945;79;20869;-87
2022/06/07 10:38:43;;;;;;;3.75;1.65;;;;;;;33.22;23.38;100898.49;1807311;77;21248;-86
2022/06/07 10:41:33;;;;;;;1.72;0.93;;;;;;;33.04;23.69;100893.96;1796844;77;20851;-87
2022/06/07 10:44:19;;;;;;;12.65;11.38;;;;;;;33.13;24.84;100895.80;1809728;79;20935;-88
2022/06/07 10:46:46;;;;;;;2.90;1.65;;;;;;;33.35;24.11;100898.77;1793510;78;21002;-90
2022/06/07 10:49:27;;;;;;;2.77;1.57;;;;;;;33.21;23.36;100889.48;1798430;78;20866;-86
2022/06/07 10:55:04;;;;;;;0.75;0.70;;;;;;;33.06;23.77;100891.02;1810963;77;21129;-90
2022/06/07 10:57:58;;;;;;;10.90;4.15;;;;;;;33.21;24.63;100879.97;1789107;78;20938;-87
2022/06/07 11:00:46;;;;;;;2.83;0.80;;;;;;;33.49;24.55;100878.98;1805264;77;20872;-90
2022/06/07 11:03:35;;;;;;;10.43;2.40;;;;;;;33.72;23.21;100875.42;1802564;78;20857;-88
2022/06/07 11:09:20;;;;;;;3.80;1.22;;;;;;;34.15;23.13;100866.81;1793041;77;20912;-90
2022/06/07 11:11:54;;;;;;;3.08;1.40;;;;;;;34.35;23.25;100869.09;1794781;77;21267;-90
2022/06/07 11:15:06;;;;;;;2.02;0.50;;;;;;;34.41;22.73;100864.55;1802562;77;20954;-90
2022/06/07 11:17:58;;;;;;;2.62;0.70;;;;;;;34.34;23.14;100858.44;1805602;78;20939;-90
2022/06/07 11:20:29;;;;;;;8.78;7.70;;;;;;;34.23;22.77;100862.86;1775527;78;21078;-90
2022/06/07 11:23:04;;;;;;;2.95;1.05;;;;;;;34.11;22.34;100858.02;1744788;80;20836;-89
2022/06/07 11:25:36;;;;;;;4.50;2.35;;;;;;;34.03;22.89;100858.64;1744919;80;21011;-88
2022/06/07 11:28:07;;;;;;;;;;;;;;;34.04;23.25;100854.87;1743875;80;20904;-90
2022/06/07 11:30:40;;;;;;;1.92;0.98;;;;;;;34.03;23.01;100856.46;1757054;80;20117;-88
2022/06/07 11:33:38;;;;;;;4.20;3.72;;;;;;;33.89;23.07;100860.00;1729637;82;21099;-88
2022/06/07 11:36:27;;;;;;;2.70;1.45;;;;;;;33.62;23.20;100854.28;1762139;81;20873;-90
2022/06/07 11:42:20;;;;;;;17.13;15.50;;;;;;;32.93;23.75;100837.17;1641212;86;21067;-86
2022/06/07 11:45:05;;;;;;;12.70;11.40;;;;;;;32.66;24.70;100836.80;1660850;86;21003;-88
2022/06/07 11:47:46;;;;;;;6.05;4.65;;;;;;;32.32;25.03;100832.34;1660738;86;21131;-88
2022/06/07 11:50:33;;;;;;;2.47;2.27;;;;;;;31.94;24.84;100833.99;1659234;85;20860;-87
2022/06/07 11:53:27;;;;;;;2.40;1.30;;;;;;;31.57;25.32;100838.92;1638905;86;21538;-90
2022/06/07 11:56:21;;;;;;;4.10;2.72;;;;;;;31.22;25.34;100834.57;1685794;83;20911;-87
2022/06/07 11:58:57;;;;;;;;;;;;;;;30.87;26.96;100828.31;1702795;83;20889;-87
2022/06/07 12:01:43;;;;;;;2.95;1.30;;;;;;;30.53;26.51;100829.07;1700030;83;21151;-87
2022/06/07 12:04:45;;;;;;;5.33;1.57;;;;;;;30.21;27.03;100820.59;1700345;83;20872;-89
2022/06/07 12:07:22;;;;;;;4.05;1.07;;;;;;;29.88;27.67;100823.80;1697866;83;21034;-86
2022/06/07 12:09:53;;;;;;;5.65;5.08;;;;;;;29.77;27.42;100831.23;1699015;83;20983;-88
2022/06/07 12:12:31;;;;;;;17.25;15.45;;;;;;;29.67;27.69;100822.69;1700348;83;20995;-85
2022/06/07 12:15:19;;;;;;;7.22;4.40;;;;;;;29.60;28.13;100825.42;1701121;82;21119;-88